createdAt,value
2022-09-02T00:01:59.931Z,22.42
2022-09-02T00:04:31.990Z,22.41
2022-09-02T00:07:06.157Z,22.35
2022-09-02T00:09:46.725Z,22.29
2022-09-02T00:12:20.217Z,22.26
2022-09-02T00:14:51.271Z,22.25
2022-09-02T00:17:24.062Z,22.20
2022-09-02T00:19:56.423Z,22.18
2022-09-02T00:22:27.511Z,22.16
2022-09-02T00:24:58.380Z,22.10
2022-09-02T00:27:44.411Z,22.05
2022-09-02T00:30:20.525Z,22.03
2022-09-02T00:33:03.996Z,21.99
2022-09-02T00:35:37.695Z,21.97
2022-09-02T00:38:10.071Z,21.95
2022-09-02T00:40:51.351Z,21.95
2022-09-02T00:43:28.871Z,21.94
2022-09-02T00:46:08.124Z,21.93
2022-09-02T00:48:40.432Z,21.93
2022-09-02T00:51:12.740Z,21.91
2022-09-02T00:53:51.882Z,21.92
2022-09-02T00:56:33.878Z,21.92
2022-09-02T00:59:10.664Z,21.91
2022-09-02T01:01:50.183Z,21.87
2022-09-02T01:04:21.055Z,21.86
2022-09-02T01:06:57.200Z,21.84
2022-09-02T01:09:28.856Z,21.80
2022-09-02T01:12:06.534Z,21.75
2022-09-02T01:14:38.890Z,21.70
2022-09-02T01:17:15.684Z,21.66
2022-09-02T01:19:49.977Z,21.61
2022-09-02T01:22:23.445Z,21.59
2022-09-02T01:24:55.729Z,21.58
2022-09-02T01:27:26.396Z,21.56
2022-09-02T01:30:03.228Z,21.54
2022-09-02T01:32:34.260Z,21.54
2022-09-02T01:35:06.795Z,21.54
2022-09-02T01:37:41.893Z,21.57
2022-09-02T01:40:29.211Z,21.55
2022-09-02T01:43:01.611Z,21.52
2022-09-02T01:45:35.857Z,21.48
2022-09-02T01:48:11.648Z,21.42
2022-09-02T01:50:47.593Z,21.37
2022-09-02T01:53:33.020Z,21.36
2022-09-02T01:56:05.400Z,21.36
2022-09-02T01:58:40.277Z,21.33
2022-09-02T02:01:12.875Z,21.36
2022-09-02T02:03:48.729Z,21.35
2022-09-02T02:06:19.558Z,21.34
2022-09-02T02:08:53.337Z,21.32
2022-09-02T02:11:28.940Z,21.36
2022-09-02T02:13:59.655Z,21.39
2022-09-02T02:16:31.953Z,21.38
2022-09-02T02:19:08.360Z,21.34
2022-09-02T02:21:43.393Z,21.33
2022-09-02T02:24:17.608Z,21.29
2022-09-02T02:26:49.569Z,21.27
2022-09-02T02:29:24.751Z,21.25
2022-09-02T02:31:57.931Z,21.23
2022-09-02T02:34:36.118Z,21.22
2022-09-02T02:37:07.813Z,21.21
2022-09-02T02:39:38.599Z,21.17
2022-09-02T02:42:16.396Z,21.13
2022-09-02T02:44:51.238Z,21.08
2022-09-02T02:47:23.666Z,21.04
2022-09-02T02:49:54.779Z,21.03
2022-09-02T02:52:28.932Z,21.05
2022-09-02T02:55:00.706Z,21.02
2022-09-02T02:57:31.547Z,21.03
2022-09-02T03:00:07.229Z,21.05
2022-09-02T03:02:40.985Z,21.01
2022-09-02T03:05:22.888Z,20.99
2022-09-02T03:08:03.636Z,20.99
2022-09-02T03:10:40.432Z,20.99
2022-09-02T03:13:22.887Z,20.97
2022-09-02T03:15:53.890Z,20.96
2022-09-02T03:18:27.543Z,20.93
2022-09-02T03:21:19.452Z,20.88
2022-09-02T03:23:57.997Z,20.85
2022-09-02T03:26:33.480Z,20.85
2022-09-02T03:29:05.333Z,20.85
2022-09-02T03:31:36.363Z,20.85
2022-09-02T03:34:11.760Z,20.84
2022-09-02T03:36:44.231Z,20.82
2022-09-02T03:39:35.040Z,20.82
2022-09-02T03:42:19.285Z,20.82
2022-09-02T03:44:57.542Z,20.79
2022-09-02T03:47:30.287Z,20.79
2022-09-02T03:50:07.042Z,20.80
2022-09-02T03:52:40.455Z,20.78
2022-09-02T03:55:12.119Z,20.79
2022-09-02T03:57:44.488Z,20.79
2022-09-02T04:00:18.335Z,20.78
2022-09-02T04:02:50.064Z,20.80
2022-09-02T04:05:33.976Z,20.78
2022-09-02T04:08:14.385Z,20.75
2022-09-02T04:10:48.270Z,20.72
2022-09-02T04:13:20.467Z,20.68
2022-09-02T04:15:58.624Z,20.67
2022-09-02T04:18:35.208Z,20.67
2022-09-02T04:21:08.939Z,20.65
2022-09-02T04:23:39.711Z,20.64
2022-09-02T04:26:16.699Z,20.62
2022-09-02T04:28:53.580Z,20.62
2022-09-02T04:31:37.744Z,20.68
2022-09-02T04:34:11.070Z,20.71
2022-09-02T04:36:43.435Z,20.72
2022-09-02T04:39:14.184Z,20.70
2022-09-02T04:41:55.273Z,20.69
2022-09-02T04:44:31.103Z,20.68
2022-09-02T04:47:06.828Z,20.63
2022-09-02T04:49:37.684Z,20.62
2022-09-02T04:52:10.725Z,20.63
2022-09-02T04:54:41.498Z,20.63
2022-09-02T04:57:12.372Z,20.61
2022-09-02T04:59:48.428Z,20.64
2022-09-02T05:02:27.622Z,20.61
2022-09-02T05:05:02.418Z,20.59
2022-09-02T05:07:35.729Z,20.57
2022-09-02T05:10:16.954Z,20.60
2022-09-02T05:12:50.520Z,20.62
2022-09-02T05:15:24.271Z,20.65
2022-09-02T05:18:47.878Z,20.65
2022-09-02T05:21:17.958Z,20.64
2022-09-02T05:23:58.795Z,20.64
2022-09-02T05:26:39.021Z,20.68
2022-09-02T05:29:10.071Z,20.69
2022-09-02T05:31:46.847Z,20.70
2022-09-02T05:34:18.780Z,20.67
2022-09-02T05:36:52.553Z,20.68
2022-09-02T05:39:26.323Z,20.69
2022-09-02T05:41:58.600Z,20.68
2022-09-02T05:44:31.619Z,20.70
2022-09-02T05:47:02.372Z,20.73
2022-09-02T05:49:36.060Z,20.75
2022-09-02T05:52:13.317Z,20.76
2022-09-02T05:54:52.656Z,20.73
2022-09-02T05:57:29.211Z,20.73
2022-09-02T06:00:00.320Z,20.73
2022-09-02T06:02:33.689Z,20.76
2022-09-02T06:05:21.455Z,20.73
2022-09-02T06:08:17.102Z,20.67
2022-09-02T06:11:07.511Z,20.69
2022-09-02T06:13:45.747Z,20.72
2022-09-02T06:16:34.056Z,20.71
2022-09-02T06:19:17.729Z,20.70
2022-09-02T06:21:58.700Z,20.72
2022-09-02T06:24:37.249Z,20.75
2022-09-02T06:27:18.095Z,20.74
2022-09-02T06:30:05.417Z,20.76
2022-09-02T06:32:45.481Z,20.79
2022-09-02T06:35:28.949Z,20.80
2022-09-02T06:38:03.784Z,20.81
2022-09-02T06:40:38.003Z,20.84
2022-09-02T06:43:16.721Z,20.87
2022-09-02T06:46:02.961Z,20.88
2022-09-02T06:48:33.857Z,20.96
2022-09-02T06:51:20.138Z,21.05
2022-09-02T06:53:54.030Z,21.13
2022-09-02T06:56:31.058Z,21.22
2022-09-02T06:59:35.436Z,21.29
2022-09-02T07:02:09.203Z,21.37
2022-09-02T07:05:20.375Z,21.46
2022-09-02T07:08:20.132Z,21.54
2022-09-02T07:11:07.310Z,21.62
2022-09-02T07:13:52.523Z,21.68
2022-09-02T07:16:31.280Z,21.74
2022-09-02T07:19:16.097Z,21.79
2022-09-02T07:21:49.840Z,21.83
2022-09-02T07:24:35.405Z,21.83
2022-09-02T07:27:07.850Z,21.77
2022-09-02T07:29:46.440Z,21.75
2022-09-02T07:32:23.655Z,21.77
2022-09-02T07:35:05.376Z,21.85
2022-09-02T07:37:38.610Z,21.92
2022-09-02T07:40:21.718Z,21.99
2022-09-02T07:42:54.523Z,22.04
2022-09-02T07:45:32.444Z,22.03
2022-09-02T07:48:07.488Z,22.00
2022-09-02T07:50:45.051Z,22.04
2022-09-02T07:53:16.806Z,22.05
2022-09-02T07:55:55.132Z,22.01
2022-09-02T07:58:37.904Z,22.00
2022-09-02T08:01:09.465Z,21.99
2022-09-02T08:03:46.462Z,21.98
2022-09-02T08:06:27.715Z,22.00
2022-09-02T08:09:13.771Z,22.06
2022-09-02T08:11:49.661Z,22.14
2022-09-02T08:14:21.693Z,22.20
2022-09-02T08:16:59.991Z,22.19
2022-09-02T08:19:34.678Z,22.23
2022-09-02T08:22:06.887Z,22.31
2022-09-02T08:24:39.367Z,22.36
2022-09-02T08:27:14.045Z,22.42
2022-09-02T08:29:53.873Z,22.46
2022-09-02T08:32:26.880Z,22.50
2022-09-02T08:35:00.373Z,22.51
2022-09-02T08:37:35.496Z,22.57
2022-09-02T08:40:16.134Z,22.66
2022-09-02T08:42:51.838Z,22.78
2022-09-02T08:45:25.692Z,22.89
2022-09-02T08:48:02.463Z,23.05
2022-09-02T08:50:33.424Z,23.22
2022-09-02T08:53:08.065Z,23.32
2022-09-02T08:55:41.602Z,23.44
2022-09-02T08:58:14.963Z,23.59
2022-09-02T09:00:52.555Z,23.71
2022-09-02T09:03:30.926Z,23.77
2022-09-02T09:06:05.879Z,23.84
2022-09-02T09:08:38.529Z,23.91
2022-09-02T09:11:13.091Z,23.94
2022-09-02T09:13:54.257Z,24.02
2022-09-02T09:16:33.535Z,24.10
2022-09-02T09:19:25.238Z,24.13
2022-09-02T09:22:03.409Z,24.11
2022-09-02T09:24:39.486Z,24.11
2022-09-02T09:27:12.983Z,24.17
2022-09-02T09:29:51.355Z,24.23
2022-09-02T09:32:25.465Z,24.37
2022-09-02T09:35:01.840Z,24.53
2022-09-02T09:37:36.649Z,24.57
2022-09-02T09:40:26.773Z,24.61
2022-09-02T09:43:03.816Z,24.68
2022-09-02T09:45:38.653Z,24.77
2022-09-02T09:48:33.885Z,24.95
2022-09-02T09:51:16.046Z,25.08
2022-09-02T09:53:52.100Z,25.11
2022-09-02T09:56:28.876Z,25.15
2022-09-02T09:59:03.640Z,25.18
2022-09-02T10:01:34.944Z,25.16
2022-09-02T10:04:20.726Z,25.19
2022-09-02T10:06:57.015Z,25.29
2022-09-02T10:09:37.595Z,25.34
2022-09-02T10:12:09.420Z,25.31
2022-09-02T10:14:51.697Z,25.23
2022-09-02T10:17:35.510Z,25.19
2022-09-02T10:20:16.689Z,25.17
2022-09-02T10:22:59.309Z,25.19
2022-09-02T10:25:36.048Z,25.26
2022-09-02T10:28:11.035Z,25.33
2022-09-02T10:30:42.813Z,25.34
2022-09-02T10:33:28.460Z,25.33
2022-09-02T10:36:01.009Z,25.27
2022-09-02T10:38:39.723Z,25.21
2022-09-02T10:41:15.044Z,25.24
2022-09-02T10:43:57.323Z,25.38
2022-09-02T10:46:28.539Z,25.58
2022-09-02T10:49:05.624Z,25.78
2022-09-02T10:51:38.763Z,25.90
2022-09-02T10:54:14.283Z,26.03
2022-09-02T10:56:46.915Z,26.12
2022-09-02T10:59:20.570Z,26.17
2022-09-02T11:01:53.263Z,26.18
2022-09-02T11:04:26.222Z,26.11
2022-09-02T11:07:02.956Z,26.06
2022-09-02T11:09:37.479Z,26.03
2022-09-02T11:12:11.176Z,25.97
2022-09-02T11:14:46.093Z,25.94
2022-09-02T11:17:23.336Z,25.92
2022-09-02T11:19:55.771Z,25.93
2022-09-02T11:22:30.913Z,25.93
2022-09-02T11:25:04.203Z,25.92
2022-09-02T11:27:42.444Z,25.95
2022-09-02T11:30:18.193Z,26.02
2022-09-02T11:32:51.711Z,26.06
2022-09-02T11:35:27.594Z,26.10
2022-09-02T11:38:00.979Z,26.13
2022-09-02T11:40:39.953Z,26.10
2022-09-02T11:43:25.923Z,26.09
2022-09-02T11:46:18.555Z,26.05
2022-09-02T11:49:00.237Z,26.05
2022-09-02T11:51:36.646Z,26.05
2022-09-02T11:54:10.936Z,26.04
2022-09-02T11:56:53.661Z,26.05
2022-09-02T11:59:25.023Z,26.07
2022-09-02T12:01:57.639Z,26.07
2022-09-02T12:07:31.983Z,26.02
2022-09-02T12:10:08.941Z,26.00
2022-09-02T12:13:03.183Z,25.99
2022-09-02T12:15:35.430Z,25.95
2022-09-02T12:18:12.243Z,25.93
2022-09-02T12:21:16.278Z,26.00
2022-09-02T12:24:15.541Z,26.09
2022-09-02T12:27:03.680Z,26.10
2022-09-02T12:29:39.698Z,26.02
2022-09-02T12:32:11.071Z,26.01
2022-09-02T12:35:08.553Z,26.00
2022-09-02T12:37:54.248Z,25.98
2022-09-02T12:40:36.018Z,25.96
2022-09-02T12:43:08.325Z,25.95
2022-09-02T12:45:41.365Z,25.87
2022-09-02T12:48:13.133Z,25.76
2022-09-02T12:50:56.285Z,25.70
2022-09-02T12:53:39.672Z,25.66
2022-09-02T12:56:20.001Z,25.69
2022-09-02T12:59:01.709Z,25.65
2022-09-02T13:01:37.604Z,25.60
2022-09-02T13:04:17.628Z,25.53
2022-09-02T13:07:03.678Z,25.47
2022-09-02T13:10:00.226Z,25.41
2022-09-02T13:12:50.526Z,25.37
2022-09-02T13:15:35.085Z,25.33
2022-09-02T13:18:17.842Z,25.31
2022-09-02T13:20:55.932Z,25.28
2022-09-02T13:24:01.477Z,25.22
2022-09-02T13:26:50.039Z,25.16
2022-09-02T13:29:49.002Z,25.10
2022-09-02T13:32:46.291Z,25.03
2022-09-02T13:35:27.386Z,24.97
2022-09-02T13:38:03.289Z,24.93
2022-09-02T13:40:34.974Z,24.85
2022-09-02T13:43:10.823Z,24.62
2022-09-02T13:45:44.080Z,24.43
2022-09-02T13:48:17.858Z,24.23
2022-09-02T13:50:54.273Z,24.13
2022-09-02T13:54:18.241Z,24.06
2022-09-02T13:56:27.585Z,23.95
2022-09-02T13:59:00.170Z,23.96
2022-09-02T14:01:35.659Z,24.02
2022-09-02T14:04:07.803Z,24.10
2022-09-02T14:06:43.515Z,24.09
2022-09-02T14:09:24.605Z,24.01
2022-09-02T14:12:02.992Z,23.95
2022-09-02T14:14:34.314Z,23.91
2022-09-02T14:17:30.087Z,23.95
2022-09-02T14:20:32.831Z,24.01
2022-09-02T14:32:35.790Z,24.09
2022-09-02T14:35:44.151Z,24.09
2022-09-02T14:38:30.971Z,24.06
2022-09-02T14:41:23.480Z,24.11
2022-09-02T14:43:58.981Z,24.07
2022-09-02T14:46:31.143Z,24.00
2022-09-02T14:49:07.292Z,23.92
2022-09-02T14:51:42.125Z,23.85
2022-09-02T14:54:29.108Z,23.73
2022-09-02T14:57:32.699Z,23.47
2022-09-02T15:00:14.398Z,23.10
2022-09-02T15:02:48.029Z,22.56
2022-09-02T15:05:30.010Z,22.20
2022-09-02T15:08:18.931Z,21.93
2022-09-02T15:10:53.057Z,21.84
2022-09-02T15:13:38.344Z,21.73
2022-09-02T15:16:10.934Z,21.69
2022-09-02T15:18:51.862Z,21.63
2022-09-02T15:21:29.497Z,21.58
2022-09-02T15:24:04.233Z,21.52
2022-09-02T15:26:38.311Z,21.40
2022-09-02T15:29:14.052Z,21.21
2022-09-02T15:31:48.787Z,21.08
2022-09-02T15:34:19.991Z,20.96
2022-09-02T15:36:51.121Z,20.85
2022-09-02T15:39:27.449Z,20.78
2022-09-02T15:42:22.669Z,20.76
2022-09-02T15:44:57.487Z,20.78
2022-09-02T15:47:30.713Z,20.70
2022-09-02T15:50:01.732Z,20.66
2022-09-02T15:52:38.131Z,20.62
2022-09-02T15:55:09.287Z,20.56
2022-09-02T15:57:40.268Z,20.44
2022-09-02T16:00:12.189Z,20.35
2022-09-02T16:02:43.234Z,20.27
2022-09-02T16:05:15.724Z,20.11
2022-09-02T16:07:48.321Z,19.99
2022-09-02T16:10:22.518Z,19.92
2022-09-02T16:13:00.339Z,19.88
2022-09-02T16:15:38.989Z,19.82
2022-09-02T16:18:19.564Z,19.77
2022-09-02T16:20:58.084Z,19.73
2022-09-02T16:23:42.106Z,19.67
2022-09-02T16:26:20.180Z,19.64
2022-09-02T16:28:53.929Z,19.60
2022-09-02T16:31:38.105Z,19.60
2022-09-02T16:34:14.151Z,19.53
2022-09-02T16:36:49.423Z,19.50
2022-09-02T16:39:27.907Z,19.49
2022-09-02T16:42:04.745Z,19.51
2022-09-02T16:44:44.463Z,19.48
2022-09-02T16:47:21.276Z,19.42
2022-09-02T16:49:57.646Z,19.40
2022-09-02T16:52:35.354Z,19.36
2022-09-02T16:55:12.819Z,19.31
2022-09-02T16:57:46.986Z,19.26
2022-09-02T17:00:25.970Z,19.17
2022-09-02T17:03:02.367Z,19.10
2022-09-02T17:05:52.517Z,19.05
2022-09-02T17:08:26.088Z,18.98
2022-09-02T17:11:12.712Z,18.93
2022-09-02T17:13:48.537Z,18.92
2022-09-02T17:16:22.163Z,18.90
2022-09-02T17:19:00.909Z,18.83
2022-09-02T17:21:36.379Z,18.79
2022-09-02T17:24:11.264Z,18.77
2022-09-02T17:26:58.948Z,18.75
2022-09-02T17:29:49.790Z,18.68
2022-09-02T17:32:24.879Z,18.61
2022-09-02T17:34:58.707Z,18.61
2022-09-02T17:37:29.661Z,18.57
2022-09-02T17:40:05.320Z,18.55
2022-09-02T17:42:45.415Z,18.50
2022-09-02T17:45:30.850Z,18.47
2022-09-02T17:48:25.339Z,18.45
2022-09-02T17:50:56.075Z,18.45
2022-09-02T17:53:36.460Z,18.47
2022-09-02T17:56:23.375Z,18.45
2022-09-02T17:58:59.950Z,18.43
2022-09-02T18:01:41.161Z,18.44
2022-09-02T18:04:23.113Z,18.45
2022-09-02T18:06:54.315Z,18.42
2022-09-02T18:09:27.869Z,18.42
2022-09-02T18:12:08.152Z,18.42
2022-09-02T18:14:53.393Z,18.43
2022-09-02T18:17:32.196Z,18.43
2022-09-02T18:20:12.807Z,18.41
2022-09-02T18:22:56.929Z,18.42
2022-09-02T18:25:35.009Z,18.46
2022-09-02T18:28:20.831Z,18.50
2022-09-02T18:30:57.977Z,18.49
2022-09-02T18:33:38.836Z,18.49
2022-09-02T18:36:14.938Z,18.48
2022-09-02T18:38:50.073Z,18.46
2022-09-02T18:41:30.712Z,18.45
2022-09-02T18:44:12.406Z,18.49
2022-09-02T18:46:52.790Z,18.54
2022-09-02T18:49:26.080Z,18.56
2022-09-02T18:52:00.439Z,18.54
2022-09-02T18:54:32.001Z,18.54
2022-09-02T18:57:03.611Z,18.48
2022-09-02T18:59:38.101Z,18.44
2022-09-02T19:02:15.337Z,18.42
2022-09-02T19:04:50.569Z,18.40
2022-09-02T19:07:40.284Z,18.36
2022-09-02T19:10:11.363Z,18.31
2022-09-02T19:12:44.394Z,18.25
2022-09-02T19:15:17.761Z,18.19
2022-09-02T19:17:58.965Z,18.12
2022-09-02T19:20:46.971Z,18.03
2022-09-02T19:23:25.752Z,17.97
2022-09-02T19:26:04.084Z,17.96
2022-09-02T19:28:37.762Z,17.96
2022-09-02T19:31:18.113Z,17.95
2022-09-02T19:33:58.018Z,17.95
2022-09-02T19:36:42.750Z,17.90
2022-09-02T19:39:18.874Z,17.88
2022-09-02T19:41:59.858Z,17.88
2022-09-02T19:44:35.784Z,17.87
2022-09-02T19:48:05.010Z,17.85
2022-09-02T19:50:16.314Z,17.86
2022-09-02T19:53:00.323Z,17.86
2022-09-02T19:55:38.030Z,17.85
2022-09-02T19:58:17.321Z,17.87
2022-09-02T20:00:52.199Z,17.87
2022-09-02T20:03:33.295Z,17.89
2022-09-02T20:06:06.735Z,17.86
2022-09-02T20:09:02.168Z,17.80
2022-09-02T20:11:33.242Z,17.78
2022-09-02T20:14:10.916Z,17.77
2022-09-02T20:16:42.376Z,17.73
2022-09-02T20:19:19.522Z,17.70
2022-09-02T20:21:56.430Z,17.66
2022-09-02T20:24:35.459Z,17.67
2022-09-02T20:27:15.987Z,17.66
2022-09-02T20:30:00.969Z,17.66
2022-09-02T20:32:38.885Z,17.63
2022-09-02T20:35:13.036Z,17.62
2022-09-02T20:37:50.853Z,17.61
2022-09-02T20:40:27.203Z,17.62
2022-09-02T20:43:07.138Z,17.63
2022-09-02T20:45:44.411Z,17.61
2022-09-02T20:48:28.553Z,17.55
2022-09-02T20:51:03.782Z,17.51
2022-09-02T20:53:52.403Z,17.48
2022-09-02T20:56:29.106Z,17.44
2022-09-02T20:59:06.742Z,17.38
2022-09-02T21:01:41.736Z,17.26
2022-09-02T21:04:22.391Z,17.18
2022-09-02T21:07:05.842Z,17.13
2022-09-02T21:09:41.659Z,17.13
2022-09-02T21:12:18.594Z,17.13
2022-09-02T21:14:51.710Z,17.15
2022-09-02T21:17:26.750Z,17.16
2022-09-02T21:20:01.968Z,17.16
2022-09-02T21:22:34.676Z,17.17
2022-09-02T21:25:10.641Z,17.13
2022-09-02T21:27:50.431Z,17.12
2022-09-02T21:30:22.454Z,17.12
2022-09-02T21:32:58.305Z,17.13
2022-09-02T21:35:43.146Z,17.11
2022-09-02T21:38:16.921Z,17.07
2022-09-02T21:40:51.875Z,17.03
2022-09-02T21:43:31.093Z,16.99
2022-09-02T21:46:15.966Z,16.94
2022-09-02T21:48:55.955Z,16.88
2022-09-02T21:51:30.226Z,16.81
2022-09-02T21:54:12.906Z,16.73
2022-09-02T21:56:50.082Z,16.60
2022-09-02T21:59:34.229Z,16.55
2022-09-02T22:02:13.258Z,16.51
2022-09-02T22:04:53.403Z,16.43
2022-09-02T22:07:27.436Z,16.39
2022-09-02T22:10:03.791Z,16.39
2022-09-02T22:12:51.502Z,16.39
2022-09-02T22:15:30.311Z,16.36
2022-09-02T22:18:09.994Z,16.35
2022-09-02T22:20:48.357Z,16.32
2022-09-02T22:23:35.628Z,16.32
2022-09-02T22:26:11.815Z,16.30
2022-09-02T22:28:51.657Z,16.28
2022-09-02T22:31:26.244Z,16.26
2022-09-02T22:34:05.926Z,16.24
2022-09-02T22:36:41.241Z,16.24
2022-09-02T22:39:16.682Z,16.21
2022-09-02T22:41:51.849Z,16.14
2022-09-02T22:44:52.541Z,16.09
2022-09-02T22:47:45.600Z,16.10
2022-09-02T22:50:37.467Z,16.11
2022-09-02T22:53:10.865Z,16.07
2022-09-02T22:55:47.515Z,16.08
2022-09-02T22:58:23.796Z,16.08
2022-09-02T23:00:58.576Z,16.10
2022-09-02T23:03:42.720Z,16.13
2022-09-02T23:06:23.415Z,16.12
2022-09-02T23:08:55.651Z,16.09
2022-09-02T23:11:32.439Z,16.03
2022-09-02T23:14:11.202Z,16.01
2022-09-02T23:16:46.905Z,16.03
2022-09-02T23:19:18.632Z,16.09
2022-09-02T23:21:54.500Z,16.10
2022-09-02T23:24:27.573Z,16.06
2022-09-02T23:27:03.116Z,16.01
2022-09-02T23:29:38.870Z,15.97
2022-09-02T23:32:28.755Z,15.98
2022-09-02T23:35:14.739Z,15.98
2022-09-02T23:38:01.171Z,16.01
2022-09-02T23:40:43.092Z,16.02
2022-09-02T23:43:18.568Z,16.03
2022-09-02T23:45:56.011Z,16.03
2022-09-02T23:48:32.959Z,15.95
2022-09-02T23:51:13.293Z,15.90
2022-09-02T23:53:49.192Z,15.86
2022-09-02T23:56:29.828Z,15.85
2022-09-02T23:59:22.361Z,15.80
